Time;durP1;ratioP1;P1;durP2;ratioP2;P2;SDS_P1;SDS_P2;PMS_P1;PMS_P2;Temp;Humidity;BMP_temperature;BMP_pressure;BME280_temperature;BME280_humidity;BME280_pressure;Samples;Min_cycle;Max_cycle;Signal;HPM_P1;HPM_P2
2021/05/07 00:02:13;;;;;;;2.55;1.80;;;9.30;99.90;;;;;;5042950;28;20590;-72
2021/05/07 00:04:40;;;;;;;3.72;2.20;;;9.20;99.90;;;;;;5045871;28;20049;-71
2021/05/07 00:07:06;;;;;;;3.20;2.05;;;9.20;99.90;;;;;;5046537;28;21274;-78
2021/05/07 00:09:35;;;;;;;3.47;2.35;;;9.20;99.90;;;;;;5041893;28;20056;-72
2021/05/07 00:12:04;;;;;;;2.58;2.10;;;9.20;99.90;;;;;;5044949;28;20526;-72
2021/05/07 00:14:30;;;;;;;3.30;2.30;;;9.20;99.90;;;;;;5043550;28;20057;-72
2021/05/07 00:16:57;;;;;;;2.53;2.03;;;9.20;99.90;;;;;;5046463;28;20057;-71
2021/05/07 00:19:24;;;;;;;2.78;1.83;;;9.10;99.90;;;;;;5044116;28;20143;-71
2021/05/07 00:21:50;;;;;;;3.13;2.10;;;9.10;99.90;;;;;;5045298;28;20052;-72
2021/05/07 00:24:17;;;;;;;2.38;2.05;;;9.10;99.90;;;;;;5026874;28;20137;-72
2021/05/07 00:26:43;;;;;;;2.00;1.80;;;9.10;99.90;;;;;;5044516;28;20095;-72
2021/05/07 00:29:10;;;;;;;3.85;1.95;;;9.10;99.90;;;;;;5046621;28;20053;-71
2021/05/07 00:31:36;;;;;;;3.63;2.60;;;9.00;99.90;;;;;;5044450;28;20411;-72
2021/05/07 00:34:02;;;;;;;2.70;2.20;;;8.90;99.90;;;;;;5043236;28;20060;-73
2021/05/07 00:36:29;;;;;;;3.67;2.60;;;9.00;99.90;;;;;;5045310;28;20473;-72
2021/05/07 00:38:55;;;;;;;5.40;2.72;;;9.00;99.90;;;;;;5044647;28;20583;-72
2021/05/07 00:41:22;;;;;;;3.92;2.50;;;9.00;99.90;;;;;;5044628;28;20057;-72
2021/05/07 00:43:48;;;;;;;3.25;2.30;;;9.00;99.90;;;;;;5043743;28;20076;-72
2021/05/07 00:46:14;;;;;;;2.90;2.17;;;9.10;99.90;;;;;;5044853;28;20041;-71
2021/05/07 00:48:41;;;;;;;3.35;2.15;;;9.00;99.90;;;;;;5044092;28;20088;-71
2021/05/07 00:51:07;;;;;;;3.33;2.40;;;9.00;99.90;;;;;;5049096;28;20049;-72
2021/05/07 00:53:35;;;;;;;2.92;2.35;;;9.00;99.90;;;;;;5048325;28;20104;-72
2021/05/07 00:56:01;;;;;;;4.32;2.78;;;9.00;99.90;;;;;;5049611;28;20099;-73
2021/05/07 00:58:27;;;;;;;3.50;2.50;;;9.00;99.90;;;;;;5045958;28;20500;-70
2021/05/07 01:00:54;;;;;;;6.45;2.83;;;9.00;99.90;;;;;;5048335;28;20136;-70
2021/05/07 01:03:20;;;;;;;5.00;2.67;;;9.00;99.90;;;;;;5055595;28;20172;-71
2021/05/07 01:05:47;;;;;;;5.93;2.70;;;9.00;99.90;;;;;;5063662;28;20515;-71
2021/05/07 01:08:15;;;;;;;3.30;2.58;;;9.00;99.90;;;;;;5050300;28;20068;-70
2021/05/07 01:10:42;;;;;;;5.20;2.88;;;9.00;99.90;;;;;;5056417;28;20187;-71
2021/05/07 01:13:08;;;;;;;5.55;2.97;;;9.00;99.90;;;;;;5049339;28;20063;-70
2021/05/07 01:15:41;;;;;;;3.40;2.67;;;8.90;99.90;;;;;;5045202;28;20076;-71
2021/05/07 01:18:07;;;;;;;3.90;2.50;;;8.90;99.90;;;;;;5049764;28;20128;-71
2021/05/07 01:20:35;;;;;;;3.75;2.47;;;8.90;99.90;;;;;;5049559;28;20045;-72
2021/05/07 01:23:09;;;;;;;3.40;2.30;;;8.80;99.90;;;;;;5049101;28;20132;-72
2021/05/07 01:25:39;;;;;;;4.15;3.03;;;8.80;99.90;;;;;;5045457;28;20044;-71
2021/05/07 01:28:07;;;;;;;4.55;2.40;;;8.80;99.90;;;;;;5049628;28;20125;-70
2021/05/07 01:30:46;;;;;;;3.53;2.75;;;8.80;99.90;;;;;;5050624;28;20418;-72
2021/05/07 01:33:15;;;;;;;4.50;3.03;;;8.80;99.90;;;;;;5049243;28;20102;-71
2021/05/07 01:35:44;;;;;;;3.30;2.50;;;8.90;99.90;;;;;;5048528;28;20049;-70
2021/05/07 01:38:13;;;;;;;3.90;2.65;;;8.80;99.90;;;;;;5049730;28;20076;-71
2021/05/07 01:40:43;;;;;;;3.60;2.78;;;8.80;99.90;;;;;;5061712;28;20099;-71
2021/05/07 01:43:10;;;;;;;3.47;2.58;;;8.80;99.90;;;;;;5047519;28;20052;-71
2021/05/07 01:45:38;;;;;;;3.83;2.40;;;8.80;99.90;;;;;;5051079;28;20140;-72
2021/05/07 01:48:06;;;;;;;5.40;2.97;;;8.80;99.90;;;;;;5040553;28;20044;-73
2021/05/07 01:50:35;;;;;;;3.75;2.83;;;8.70;99.90;;;;;;5034734;28;20050;-71
2021/05/07 01:53:03;;;;;;;3.00;2.30;;;8.70;99.90;;;;;;5043107;28;20073;-71
2021/05/07 01:55:34;;;;;;;4.43;2.85;;;8.70;99.90;;;;;;5046160;28;20142;-72
2021/05/07 01:58:02;;;;;;;4.05;3.15;;;8.70;99.90;;;;;;5048640;28;20434;-72
2021/05/07 02:00:29;;;;;;;5.15;2.97;;;8.70;99.90;;;;;;5048662;28;20484;-73
2021/05/07 02:02:57;;;;;;;3.55;2.90;;;8.70;99.90;;;;;;5049529;28;20048;-72
2021/05/07 02:05:27;;;;;;;5.13;2.90;;;8.70;99.90;;;;;;5042659;28;20048;-72
2021/05/07 02:07:54;;;;;;;3.57;2.83;;;8.70;99.90;;;;;;5061986;28;20054;-72
2021/05/07 02:10:26;;;;;;;4.60;2.88;;;8.80;99.90;;;;;;5051633;28;20064;-72
2021/05/07 02:12:55;;;;;;;3.67;2.67;;;8.80;99.90;;;;;;5047952;28;20068;-72
2021/05/07 02:15:23;;;;;;;4.65;3.10;;;8.80;99.90;;;;;;5048121;28;20136;-72
2021/05/07 02:17:50;;;;;;;6.75;3.30;;;8.80;99.90;;;;;;5041103;28;20187;-71
2021/05/07 02:20:18;;;;;;;5.90;3.10;;;8.80;99.90;;;;;;5050117;28;20071;-71
2021/05/07 02:22:46;;;;;;;5.00;3.15;;;8.80;99.90;;;;;;5048951;28;20044;-72
2021/05/07 02:25:17;;;;;;;4.40;3.42;;;8.80;99.90;;;;;;5060770;28;20102;-72
2021/05/07 02:27:46;;;;;;;4.50;2.83;;;8.80;99.90;;;;;;5047849;28;20069;-72
2021/05/07 02:30:15;;;;;;;4.45;2.83;;;8.80;99.90;;;;;;5049275;28;20083;-72
2021/05/07 02:32:41;;;;;;;5.18;3.38;;;8.70;99.90;;;;;;5048058;28;20049;-72
2021/05/07 02:35:08;;;;;;;6.55;3.33;;;8.80;99.90;;;;;;5044605;28;20465;-72
2021/05/07 02:37:35;;;;;;;5.18;2.70;;;8.80;99.90;;;;;;5048773;28;20052;-72
2021/05/07 02:40:03;;;;;;;5.50;3.47;;;8.70;99.90;;;;;;5035062;28;20140;-72
2021/05/07 02:42:30;;;;;;;6.13;3.03;;;8.80;99.90;;;;;;5047750;28;20132;-73
2021/05/07 02:44:57;;;;;;;6.05;3.30;;;8.80;99.90;;;;;;5047303;28;20100;-72
2021/05/07 02:47:23;;;;;;;7.18;3.45;;;8.90;99.90;;;;;;5046930;28;20107;-72
2021/05/07 02:49:50;;;;;;;4.65;3.03;;;8.80;99.90;;;;;;5046107;28;20081;-72
2021/05/07 02:52:16;;;;;;;8.05;2.95;;;8.90;99.90;;;;;;5048174;28;20053;-71
2021/05/07 02:54:43;;;;;;;6.22;3.22;;;8.80;99.90;;;;;;5046312;28;20055;-72
2021/05/07 02:57:09;;;;;;;5.60;3.45;;;8.80;99.90;;;;;;5044387;28;20083;-72
2021/05/07 02:59:36;;;;;;;5.45;3.25;;;8.80;99.90;;;;;;5047273;28;20357;-73
2021/05/07 03:02:02;;;;;;;5.72;3.72;;;8.80;99.90;;;;;;5041852;28;20739;-71
2021/05/07 03:04:28;;;;;;;5.93;3.33;;;8.80;99.90;;;;;;5044495;28;20067;-72
2021/05/07 03:06:55;;;;;;;3.85;2.92;;;8.80;99.90;;;;;;5047273;28;20481;-72
2021/05/07 03:09:21;;;;;;;7.03;3.55;;;8.80;99.90;;;;;;5046150;28;20083;-71
2021/05/07 03:11:48;;;;;;;6.05;3.63;;;8.80;99.90;;;;;;5047876;28;20098;-71
2021/05/07 03:14:14;;;;;;;6.47;3.58;;;8.70;99.90;;;;;;5047065;28;20044;-71
2021/05/07 03:16:40;;;;;;;6.47;3.78;;;8.70;99.90;;;;;;5045896;28;20134;-71
2021/05/07 03:19:07;;;;;;;5.93;3.63;;;8.70;99.90;;;;;;5043286;28;20040;-71
2021/05/07 03:21:35;;;;;;;6.80;3.92;;;8.70;99.90;;;;;;5053505;28;20099;-72
2021/05/07 03:24:01;;;;;;;4.78;3.50;;;8.60;99.90;;;;;;5044031;28;20049;-72
2021/05/07 03:26:27;;;;;;;7.63;4.32;;;8.60;99.90;;;;;;5048782;28;20049;-72
2021/05/07 03:28:54;;;;;;;7.90;3.58;;;8.60;99.90;;;;;;5047324;28;20690;-71
2021/05/07 03:31:20;;;;;;;7.85;3.60;;;8.60;99.90;;;;;;5045875;28;20107;-72
2021/05/07 03:33:47;;;;;;;6.72;4.05;;;8.60;99.90;;;;;;5045541;28;20083;-72
2021/05/07 03:36:15;;;;;;;6.43;4.10;;;8.60;99.90;;;;;;5052383;28;20056;-73
2021/05/07 03:38:42;;;;;;;7.65;4.60;;;8.60;99.90;;;;;;5048989;28;20072;-73
2021/05/07 03:41:09;;;;;;;5.43;4.30;;;8.60;99.90;;;;;;5052257;28;20104;-73
2021/05/07 03:43:36;;;;;;;6.18;4.03;;;8.70;99.90;;;;;;5050293;28;20064;-72
2021/05/07 03:46:03;;;;;;;9.43;4.00;;;8.70;99.90;;;;;;5049029;28;20053;-74
2021/05/07 03:48:29;;;;;;;4.88;3.55;;;8.70;99.90;;;;;;5049426;28;20506;-74
2021/05/07 03:50:56;;;;;;;6.50;4.20;;;8.70;99.90;;;;;;5053260;28;20156;-73
2021/05/07 03:53:23;;;;;;;10.45;4.65;;;8.70;99.90;;;;;;5051410;28;20056;-73
2021/05/07 03:55:50;;;;;;;9.20;5.03;;;8.70;99.90;;;;;;5058761;28;20147;-73
2021/05/07 03:58:19;;;;;;;6.50;3.90;;;8.60;99.90;;;;;;5052533;28;20066;-73
2021/05/07 04:00:45;;;;;;;7.82;3.65;;;8.70;99.90;;;;;;5053055;28;20156;-73
2021/05/07 04:03:12;;;;;;;6.38;4.50;;;8.70;99.90;;;;;;5045541;28;20083;-73
2021/05/07 04:05:38;;;;;;;6.75;4.55;;;8.70;99.90;;;;;;5051276;28;20103;-73
2021/05/07 04:10:35;;;;;;;6.65;4.40;;;8.70;99.90;;;;;;5063070;28;20106;-74
2021/05/07 04:15:28;;;;;;;6.30;4.22;;;8.70;99.90;;;;;;5051248;28;20045;-73
2021/05/07 04:17:54;;;;;;;6.75;4.20;;;8.70;99.90;;;;;;5051014;28;20641;-74
2021/05/07 04:20:21;;;;;;;8.02;4.35;;;8.80;99.90;;;;;;5068211;28;20072;-74
2021/05/07 04:22:47;;;;;;;6.10;4.15;;;8.80;99.90;;;;;;5049725;28;20053;-73
2021/05/07 04:25:15;;;;;;;6.35;4.00;;;8.80;99.90;;;;;;5042837;28;20065;-73
2021/05/07 04:27:41;;;;;;;6.90;4.25;;;8.70;99.90;;;;;;5050100;28;20045;-74
2021/05/07 04:30:09;;;;;;;7.20;4.75;;;8.70;99.90;;;;;;5049537;28;20118;-74
2021/05/07 04:32:35;;;;;;;6.15;3.97;;;8.70;99.90;;;;;;5047774;28;20057;-74
2021/05/07 04:35:02;;;;;;;8.75;4.40;;;8.70;99.90;;;;;;5051537;28;20053;-75
2021/05/07 04:37:29;;;;;;;7.10;4.72;;;8.70;99.90;;;;;;5049363;28;20052;-74
2021/05/07 04:39:55;;;;;;;7.72;4.65;;;8.80;99.90;;;;;;5048682;28;20053;-73
2021/05/07 04:42:21;;;;;;;9.00;5.57;;;8.90;99.90;;;;;;5045648;28;20053;-73
2021/05/07 04:44:49;;;;;;;9.90;5.25;;;8.90;99.90;;;;;;5049504;28;20094;-73
2021/05/07 04:47:15;;;;;;;7.35;5.45;;;8.80;98.70;;;;;;5044436;28;20113;-74
2021/05/07 04:49:42;;;;;;;10.88;5.50;;;8.80;97.10;;;;;;5051144;28;20132;-74
2021/05/07 04:52:08;;;;;;;8.82;5.68;;;8.80;97.10;;;;;;5048800;28;20098;-74
2021/05/07 04:54:35;;;;;;;10.98;5.70;;;8.90;96.40;;;;;;5041117;28;20045;-73
2021/05/07 04:57:02;;;;;;;9.63;5.28;;;8.80;95.50;;;;;;5045977;28;20053;-74
2021/05/07 04:59:28;;;;;;;9.85;5.50;;;8.80;95.90;;;;;;5044849;28;20061;-74
2021/05/07 05:01:54;;;;;;;11.85;5.93;;;8.80;96.10;;;;;;5055955;28;20095;-73
2021/05/07 05:04:21;;;;;;;9.77;6.03;;;8.80;96.30;;;;;;5050367;28;20063;-74
2021/05/07 05:06:47;;;;;;;8.50;5.93;;;8.90;96.60;;;;;;5049340;28;20041;-73
2021/05/07 05:09:14;;;;;;;11.93;6.03;;;8.80;96.10;;;;;;5044824;28;20045;-73
2021/05/07 05:11:40;;;;;;;10.38;5.93;;;8.80;96.00;;;;;;5051309;28;20068;-73
2021/05/07 05:14:06;;;;;;;9.50;6.05;;;8.90;96.40;;;;;;5044050;28;20460;-74
2021/05/07 05:16:33;;;;;;;10.25;6.43;;;8.90;96.10;;;;;;5066366;28;20059;-74
2021/05/07 05:18:59;;;;;;;9.55;5.97;;;9.00;95.50;;;;;;5052544;28;20079;-73
2021/05/07 05:21:25;;;;;;;8.93;5.68;;;8.90;95.00;;;;;;5046561;28;20076;-73
2021/05/07 05:23:52;;;;;;;9.32;5.50;;;9.10;95.20;;;;;;5043932;28;20076;-75
2021/05/07 05:26:19;;;;;;;8.43;5.50;;;9.20;94.40;;;;;;5062985;28;20046;-72
2021/05/07 05:28:45;;;;;;;8.60;5.93;;;9.20;94.10;;;;;;5052380;28;20049;-74
2021/05/07 05:31:13;;;;;;;9.40;5.82;;;9.30;94.20;;;;;;5045585;28;20483;-74
2021/05/07 05:33:39;;;;;;;10.68;6.05;;;9.40;93.80;;;;;;5047374;28;20068;-74
2021/05/07 05:36:07;;;;;;;11.70;5.75;;;9.50;92.90;;;;;;5040202;28;20129;-74
2021/05/07 05:38:36;;;;;;;10.18;5.90;;;9.50;92.20;;;;;;5045588;28;20107;-74
2021/05/07 05:41:02;;;;;;;7.28;4.82;;;9.40;91.70;;;;;;5048701;28;20056;-74
2021/05/07 05:43:29;;;;;;;9.27;5.78;;;9.40;91.90;;;;;;5048487;28;20048;-73
2021/05/07 05:45:55;;;;;;;8.38;5.38;;;9.40;92.80;;;;;;5045735;28;20182;-74
2021/05/07 05:48:23;;;;;;;8.32;5.28;;;9.30;91.90;;;;;;5045639;28;20053;-74
2021/05/07 05:50:53;;;;;;;9.32;5.10;;;9.50;92.40;;;;;;5050431;28;20847;-74
2021/05/07 05:53:20;;;;;;;9.65;4.95;;;9.70;91.40;;;;;;5047034;28;20044;-74
2021/05/07 05:55:46;;;;;;;9.57;5.70;;;9.90;91.80;;;;;;5042801;28;20084;-74
2021/05/07 05:58:13;;;;;;;8.60;4.90;;;10.10;89.30;;;;;;5053348;28;20065;-75
2021/05/07 06:00:39;;;;;;;7.28;4.43;;;10.40;87.90;;;;;;5044710;28;20045;-74
2021/05/07 06:03:06;;;;;;;9.05;4.65;;;10.90;85.20;;;;;;5047173;28;20057;-73
2021/05/07 06:05:33;;;;;;;9.35;4.90;;;11.30;81.60;;;;;;5048287;28;20481;-74
2021/05/07 06:07:59;;;;;;;9.02;5.47;;;11.10;78.40;;;;;;5050330;28;20081;-74
2021/05/07 06:10:26;;;;;;;7.82;4.97;;;11.10;77.20;;;;;;5042687;28;20092;-74
2021/05/07 06:12:53;;;;;;;7.88;5.13;;;11.20;78.90;;;;;;5049997;28;20056;-74
2021/05/07 06:15:20;;;;;;;8.93;5.35;;;11.90;75.00;;;;;;5049838;28;20061;-73
2021/05/07 06:17:47;;;;;;;9.23;5.90;;;12.30;68.40;;;;;;5047109;28;20045;-74
2021/05/07 06:20:17;;;;;;;10.32;5.30;;;11.90;69.10;;;;;;5065294;28;20452;-74
2021/05/07 06:22:44;;;;;;;8.43;5.80;;;12.20;70.90;;;;;;5048103;28;20049;-74
2021/05/07 06:25:13;;;;;;;9.30;5.45;;;12.10;65.60;;;;;;5044708;28;20076;-74
2021/05/07 06:27:41;;;;;;;8.25;5.75;;;11.80;66.00;;;;;;5049248;28;20063;-73
2021/05/07 06:30:09;;;;;;;12.13;6.40;;;11.40;66.30;;;;;;5048836;28;20049;-74
2021/05/07 06:32:36;;;;;;;11.73;7.07;;;10.80;69.00;;;;;;5047019;28;20052;-74
2021/05/07 06:35:04;;;;;;;11.20;6.85;;;10.80;71.10;;;;;;5049355;28;20044;-74
2021/05/07 06:37:31;;;;;;;9.05;6.45;;;10.70;71.70;;;;;;5049075;28;20041;-74
2021/05/07 06:39:58;;;;;;;10.35;6.85;;;10.60;71.60;;;;;;5041441;28;20439;-74
2021/05/07 06:42:24;;;;;;;8.82;5.82;;;11.10;69.70;;;;;;5048594;28;20663;-73
2021/05/07 06:44:51;;;;;;;8.65;5.93;;;10.90;66.20;;;;;;5048160;28;20051;-75
2021/05/07 06:47:18;;;;;;;11.02;6.22;;;10.60;69.50;;;;;;5048510;28;20094;-74
2021/05/07 06:49:45;;;;;;;9.38;5.95;;;10.50;69.10;;;;;;5050043;28;20111;-74
2021/05/07 06:52:11;;;;;;;8.63;6.30;;;10.70;70.20;;;;;;5061841;28;20045;-74
2021/05/07 06:54:38;;;;;;;11.35;6.22;;;11.30;68.30;;;;;;5043548;28;20049;-74
2021/05/07 06:57:05;;;;;;;15.18;6.55;;;12.90;64.40;;;;;;5048582;28;20048;-74
2021/05/07 06:59:31;;;;;;;11.45;6.03;;;13.10;59.70;;;;;;5047251;28;20549;-75
2021/05/07 07:02:00;;;;;;;7.93;5.65;;;12.00;61.90;;;;;;5047605;28;20130;-74
2021/05/07 07:04:27;;;;;;;11.60;6.80;;;12.10;63.50;;;;;;5047585;28;20049;-74
2021/05/07 07:06:54;;;;;;;9.18;6.38;;;11.30;63.40;;;;;;5047731;28;20404;-74
2021/05/07 07:09:20;;;;;;;12.98;6.88;;;10.10;66.30;;;;;;5045300;28;20118;-75
2021/05/07 07:11:53;;;;;;;16.33;7.85;;;10.50;66.50;;;;;;5047149;28;20392;-74
2021/05/07 07:14:20;;;;;;;13.02;7.82;;;10.30;65.30;;;;;;5048104;28;20143;-73
2021/05/07 07:16:46;;;;;;;13.38;7.47;;;10.60;65.20;;;;;;5054283;28;20076;-74
2021/05/07 07:19:13;;;;;;;15.60;7.65;;;11.00;65.40;;;;;;5047386;28;20710;-74
2021/05/07 07:21:59;;;;;;;11.95;7.60;;;11.00;64.60;;;;;;5046801;28;20061;-74
2021/05/07 07:24:27;;;;;;;15.50;8.18;;;11.40;65.00;;;;;;5052926;28;20040;-75
2021/05/07 07:26:54;;;;;;;12.13;8.10;;;11.70;62.50;;;;;;5049452;28;20053;-75
2021/05/07 07:29:21;;;;;;;13.73;8.55;;;11.50;63.00;;;;;;5045710;28;20068;-75
2021/05/07 07:31:48;;;;;;;12.68;8.20;;;12.00;63.10;;;;;;5044990;28;20439;-74
2021/05/07 07:34:14;;;;;;;14.50;8.77;;;12.20;60.40;;;;;;5047555;28;20064;-75
2021/05/07 07:36:41;;;;;;;13.45;8.95;;;11.90;60.10;;;;;;5046417;28;20469;-75
2021/05/07 07:39:08;;;;;;;13.88;9.40;;;12.30;59.90;;;;;;5046951;28;20448;-75
2021/05/07 07:41:34;;;;;;;14.77;9.05;;;11.50;61.40;;;;;;5047298;28;20063;-74
2021/05/07 07:44:01;;;;;;;17.25;9.10;;;11.50;60.80;;;;;;5045946;28;20138;-74
2021/05/07 07:46:29;;;;;;;13.55;8.65;;;11.60;60.80;;;;;;5046847;28;20385;-75
2021/05/07 07:48:55;;;;;;;13.98;8.75;;;12.50;58.40;;;;;;5046463;28;20186;-74
2021/05/07 07:51:28;;;;;;;15.98;8.43;;;12.40;58.90;;;;;;5050712;28;20060;-75
2021/05/07 07:53:59;;;;;;;9.05;6.95;;;12.00;57.80;;;;;;5022301;28;20060;-74
2021/05/07 07:56:25;;;;;;;12.45;6.93;;;11.80;57.70;;;;;;5047165;28;20130;-75
2021/05/07 07:58:52;;;;;;;11.20;6.57;;;11.80;57.20;;;;;;5038781;28;20056;-75
2021/05/07 08:01:20;;;;;;;10.30;6.43;;;12.00;56.20;;;;;;5045262;28;20049;-76
2021/05/07 08:03:46;;;;;;;13.27;7.18;;;12.00;55.30;;;;;;5045226;28;20496;-73
2021/05/07 08:06:12;;;;;;;12.45;6.90;;;12.00;54.80;;;;;;5039196;28;20045;-76
2021/05/07 08:08:39;;;;;;;11.43;6.78;;;11.80;55.50;;;;;;5039886;28;20041;-73
2021/05/07 08:11:05;;;;;;;10.43;6.50;;;12.00;55.50;;;;;;5044350;28;20084;-75
2021/05/07 08:13:31;;;;;;;9.73;6.40;;;11.70;55.00;;;;;;5048207;28;20049;-75
2021/05/07 08:15:58;;;;;;;10.65;7.10;;;11.40;55.10;;;;;;5047997;28;20053;-75
2021/05/07 08:18:24;;;;;;;11.95;6.75;;;10.90;57.40;;;;;;5044451;28;20461;-75
2021/05/07 08:20:50;;;;;;;14.55;6.80;;;11.00;57.80;;;;;;5048846;28;20132;-75
2021/05/07 08:23:17;;;;;;;13.60;6.30;;;11.00;58.10;;;;;;5050948;28;20106;-75
2021/05/07 08:25:43;;;;;;;11.00;6.60;;;10.70;57.00;;;;;;5053133;28;20148;-75
2021/05/07 08:28:10;;;;;;;7.68;5.45;;;11.30;56.90;;;;;;5057564;28;20045;-75
2021/05/07 08:30:36;;;;;;;13.80;6.05;;;11.30;55.90;;;;;;5050786;28;20373;-74
2021/05/07 08:33:04;;;;;;;12.80;6.43;;;11.60;55.80;;;;;;5048054;28;20080;-74
2021/05/07 08:35:32;;;;;;;8.48;5.57;;;11.30;56.80;;;;;;5045612;28;20175;-74
2021/05/07 08:37:59;;;;;;;12.65;6.55;;;11.70;56.10;;;;;;5049443;28;20045;-75
2021/05/07 08:40:26;;;;;;;9.32;5.55;;;11.70;56.40;;;;;;5028976;28;20530;-77
2021/05/07 08:42:54;;;;;;;12.55;6.22;;;11.20;54.70;;;;;;5049912;28;20529;-77
2021/05/07 08:45:21;;;;;;;9.50;6.00;;;10.90;55.20;;;;;;5047216;28;20136;-76
2021/05/07 08:48:08;;;;;;;14.23;6.18;;;11.00;55.00;;;;;;5049189;28;20045;-76
2021/05/07 08:50:39;;;;;;;11.10;6.00;;;11.00;54.90;;;;;;5049815;28;20076;-78
2021/05/07 08:53:08;;;;;;;9.07;6.05;;;11.20;54.50;;;;;;5048285;28;20045;-76
2021/05/07 08:55:34;;;;;;;8.82;5.05;;;11.60;54.20;;;;;;5046377;28;20057;-76
2021/05/07 08:58:01;;;;;;;8.88;5.30;;;11.70;50.50;;;;;;5049057;28;20084;-75
2021/05/07 09:00:28;;;;;;;9.25;4.82;;;12.20;50.80;;;;;;5039493;28;20049;-74
2021/05/07 09:03:07;;;;;;;7.75;4.85;;;12.20;51.80;;;;;;5040871;28;20519;-75
2021/05/07 09:05:36;;;;;;;11.73;5.55;;;12.10;51.60;;;;;;5058245;28;20045;-77
2021/05/07 09:08:08;;;;;;;9.38;5.15;;;12.00;51.10;;;;;;5043349;28;20514;-75
2021/05/07 09:10:43;;;;;;;8.73;5.28;;;12.00;52.90;;;;;;5044642;28;20518;-80
2021/05/07 09:13:11;;;;;;;9.20;5.25;;;12.50;50.40;;;;;;5043747;28;20055;-75
2021/05/07 09:15:41;;;;;;;9.02;4.85;;;12.40;50.40;;;;;;5029408;28;20049;-76
2021/05/07 09:18:08;;;;;;;7.78;4.65;;;12.50;49.70;;;;;;5034675;28;20476;-75
2021/05/07 09:20:43;;;;;;;8.23;5.35;;;12.40;49.60;;;;;;5049085;28;20061;-75
2021/05/07 09:23:11;;;;;;;8.85;4.45;;;12.30;48.30;;;;;;5036017;28;20067;-75
2021/05/07 09:25:43;;;;;;;10.38;4.63;;;12.30;49.30;;;;;;5035128;28;20507;-75
2021/05/07 09:28:15;;;;;;;5.65;4.07;;;12.20;49.80;;;;;;5034390;28;20080;-77
2021/05/07 09:30:42;;;;;;;8.52;4.97;;;12.40;48.50;;;;;;5035843;28;20052;-76
2021/05/07 09:33:11;;;;;;;9.57;5.05;;;12.50;47.80;;;;;;5034402;28;20122;-74
2021/05/07 09:35:39;;;;;;;5.70;4.03;;;12.40;48.70;;;;;;5034499;28;20048;-75
2021/05/07 09:38:07;;;;;;;8.32;4.35;;;12.40;47.20;;;;;;5032801;28;20480;-74
2021/05/07 09:40:35;;;;;;;6.43;4.47;;;12.50;47.10;;;;;;5034438;28;20197;-75
2021/05/07 09:43:14;;;;;;;8.57;4.47;;;12.60;46.90;;;;;;5032736;28;20080;-75
2021/05/07 09:45:42;;;;;;;7.97;3.80;;;13.00;45.30;;;;;;5033640;28;20428;-75
2021/05/07 09:48:19;;;;;;;6.20;3.53;;;13.40;45.90;;;;;;5032653;28;20063;-75
2021/05/07 09:50:47;;;;;;;7.60;4.10;;;13.30;44.40;;;;;;5034746;28;20961;-75
2021/05/07 09:53:20;;;;;;;9.25;4.50;;;13.00;45.70;;;;;;5033438;28;20060;-75
2021/05/07 09:55:59;;;;;;;6.63;4.25;;;12.90;45.70;;;;;;5035708;28;20056;-77
2021/05/07 09:58:29;;;;;;;6.05;3.95;;;12.90;46.50;;;;;;5033422;28;20122;-76
2021/05/07 10:00:57;;;;;;;7.07;3.90;;;12.60;46.60;;;;;;5032183;28;20165;-75
2021/05/07 10:03:24;;;;;;;5.78;4.25;;;12.80;46.40;;;;;;5032735;28;20065;-75
2021/05/07 10:05:51;;;;;;;8.15;4.32;;;12.80;45.50;;;;;;5032150;28;20048;-75
2021/05/07 10:08:18;;;;;;;8.73;3.85;;;12.70;45.40;;;;;;5033895;28;20118;-75
2021/05/07 10:10:48;;;;;;;9.18;4.07;;;12.30;45.80;;;;;;5033945;28;20476;-74
2021/05/07 10:13:17;;;;;;;9.95;4.35;;;12.20;46.10;;;;;;5033811;28;20661;-75
2021/05/07 10:15:44;;;;;;;5.60;4.00;;;12.20;46.00;;;;;;5032906;28;20522;-74
2021/05/07 10:18:22;;;;;;;5.40;3.10;;;12.10;47.00;;;;;;5051929;28;20048;-75
2021/05/07 10:21:04;;;;;;;7.82;3.78;;;11.60;50.70;;;;;;5032665;28;20068;-73
2021/05/07 10:23:34;;;;;;;8.88;4.15;;;10.40;56.00;;;;;;5030664;28;20596;-75
2021/05/07 10:26:05;;;;;;;6.22;3.72;;;10.70;56.80;;;;;;5032132;28;20198;-74
2021/05/07 10:28:52;;;;;;;5.40;3.60;;;11.20;55.30;;;;;;5033093;28;20122;-75
2021/05/07 10:31:20;;;;;;;5.43;3.67;;;12.10;54.20;;;;;;5032984;28;20068;-74
2021/05/07 10:34:03;;;;;;;6.78;4.00;;;12.30;51.20;;;;;;5030684;28;20453;-75
2021/05/07 10:36:53;;;;;;;7.00;4.32;;;12.60;50.60;;;;;;5032134;28;20083;-74
2021/05/07 10:39:30;;;;;;;10.02;4.85;;;13.30;49.10;;;;;;5015077;28;20060;-74
2021/05/07 10:41:59;;;;;;;5.63;3.35;;;13.10;47.10;;;;;;5032114;28;20476;-74
2021/05/07 10:44:27;;;;;;;6.60;3.92;;;13.20;46.30;;;;;;5029990;28;20056;-74
2021/05/07 10:47:07;;;;;;;6.45;3.38;;;13.10;46.20;;;;;;5051259;28;20060;-74
2021/05/07 10:49:35;;;;;;;6.68;3.25;;;13.10;45.30;;;;;;5033227;28;20171;-75
2021/05/07 10:52:11;;;;;;;8.65;2.72;;;13.00;46.60;;;;;;5031637;28;20051;-76
2021/05/07 10:54:57;;;;;;;6.38;2.38;;;12.70;46.60;;;;;;5031165;28;20044;-74
2021/05/07 10:58:02;;;;;;;3.85;1.65;;;12.50;48.60;;;;;;5034129;28;20106;-74
2021/05/07 11:00:43;;;;;;;4.13;2.00;;;13.20;49.90;;;;;;5052108;28;20064;-74
2021/05/07 11:03:21;;;;;;;3.63;1.90;;;12.50;48.40;;;;;;5032267;28;20049;-74
2021/05/07 11:05:49;;;;;;;3.67;1.80;;;13.50;48.80;;;;;;5030840;28;20049;-74
2021/05/07 11:08:16;;;;;;;3.78;2.30;;;13.70;47.60;;;;;;5029210;28;20522;-74
2021/05/07 11:10:44;;;;;;;5.43;2.78;;;13.70;47.70;;;;;;5030667;28;20049;-74
2021/05/07 11:13:19;;;;;;;4.18;2.70;;;13.50;47.00;;;;;;5031183;28;20060;-75
2021/05/07 11:16:07;;;;;;;8.38;2.90;;;13.40;48.50;;;;;;5031802;28;20059;-75
2021/05/07 11:18:34;;;;;;;4.13;2.28;;;13.40;50.30;;;;;;5030419;28;20490;-74
2021/05/07 11:21:14;;;;;;;6.18;2.47;;;12.90;51.30;;;;;;5031717;28;20064;-74
2021/05/07 11:23:58;;;;;;;6.82;2.15;;;12.80;52.60;;;;;;5030826;28;20549;-75
2021/05/07 11:26:36;;;;;;;3.63;2.50;;;12.70;51.80;;;;;;5032938;28;20114;-75
2021/05/07 11:29:04;;;;;;;9.27;2.83;;;12.60;51.90;;;;;;5030014;28;20052;-74
2021/05/07 11:31:31;;;;;;;3.92;2.47;;;13.20;52.40;;;;;;5031823;28;20076;-73
2021/05/07 11:33:58;;;;;;;4.95;2.63;;;13.60;51.10;;;;;;5030072;28;20049;-74
2021/05/07 11:36:25;;;;;;;4.97;2.42;;;13.60;51.00;;;;;;5034110;28;20052;-73
2021/05/07 11:38:53;;;;;;;2.65;1.70;;;13.40;50.50;;;;;;5029516;28;20049;-73
2021/05/07 11:41:24;;;;;;;2.95;2.00;;;12.40;50.70;;;;;;5030689;28;20041;-75
2021/05/07 11:43:53;;;;;;;3.80;2.30;;;12.50;51.60;;;;;;5029099;28;21024;-73
2021/05/07 11:46:20;;;;;;;2.92;1.85;;;12.70;52.80;;;;;;5031122;28;20049;-74
2021/05/07 11:48:48;;;;;;;4.78;2.55;;;12.90;52.20;;;;;;5037765;28;20052;-70
2021/05/07 11:51:21;;;;;;;5.82;2.50;;;13.70;53.20;;;;;;5036414;28;20044;-73
2021/05/07 11:53:57;;;;;;;3.35;2.30;;;14.40;50.80;;;;;;5029850;28;20500;-73
2021/05/07 11:56:25;;;;;;;3.33;2.10;;;14.40;49.00;;;;;;5030418;28;20455;-73
2021/05/07 11:58:54;;;;;;;3.95;2.28;;;14.10;48.80;;;;;;5036372;28;20057;-81
2021/05/07 12:01:24;;;;;;;3.22;1.90;;;15.30;47.70;;;;;;5039042;28;20472;-72
2021/05/07 12:03:53;;;;;;;3.47;2.35;;;14.70;47.80;;;;;;5041037;28;20130;-73
2021/05/07 12:06:33;;;;;;;3.83;2.80;;;14.60;48.60;;;;;;5035338;28;20144;-72
2021/05/07 12:09:12;;;;;;;3.72;2.30;;;14.60;48.00;;;;;;5033877;28;20099;-73
2021/05/07 12:11:39;;;;;;;4.07;2.88;;;14.20;48.80;;;;;;5039135;28;20045;-73
2021/05/07 12:14:13;;;;;;;8.40;3.15;;;14.00;49.60;;;;;;5040266;28;20081;-73
2021/05/07 12:16:40;;;;;;;3.78;2.55;;;14.40;49.40;;;;;;5041189;28;20053;-73
2021/05/07 12:19:09;;;;;;;6.85;2.65;;;16.20;46.50;;;;;;5046877;28;20077;-72
2021/05/07 12:21:45;;;;;;;3.00;2.50;;;18.90;42.90;;;;;;5050467;28;20490;-73
2021/05/07 12:24:24;;;;;;;3.97;2.42;;;20.00;40.60;;;;;;5048417;28;20358;-73
2021/05/07 12:26:50;;;;;;;4.95;2.50;;;19.60;42.00;;;;;;5050902;28;20041;-73
2021/05/07 12:29:17;;;;;;;3.33;2.50;;;19.30;40.30;;;;;;5051414;28;20049;-73
2021/05/07 12:31:43;;;;;;;4.18;2.70;;;16.00;43.60;;;;;;5061766;28;20439;-73
2021/05/07 12:34:14;;;;;;;4.47;2.85;;;15.00;47.10;;;;;;5051507;28;20041;-73
2021/05/07 12:36:42;;;;;;;5.65;2.70;;;14.20;50.70;;;;;;5048519;28;20425;-72
2021/05/07 12:39:14;;;;;;;10.60;3.20;;;14.60;51.30;;;;;;5050531;28;20484;-73
2021/05/07 12:41:40;;;;;;;4.28;2.50;;;15.60;52.90;;;;;;5050179;28;20087;-73
2021/05/07 12:44:13;;;;;;;5.55;2.22;;;19.80;46.20;;;;;;5050614;28;20106;-76
2021/05/07 12:46:39;;;;;;;3.88;1.70;;;21.40;40.50;;;;;;5047022;28;20500;-76
2021/05/07 12:49:07;;;;;;;4.03;1.98;;;19.20;38.00;;;;;;5048030;28;20597;-75
2021/05/07 12:51:35;;;;;;;3.15;2.03;;;19.60;38.70;;;;;;5053162;28;20044;-76
2021/05/07 12:54:02;;;;;;;3.78;2.10;;;18.80;37.70;;;;;;5051161;28;20499;-87
2021/05/07 12:56:29;;;;;;;3.78;2.42;;;17.00;39.80;;;;;;5050401;28;20128;-75
2021/05/07 12:59:01;;;;;;;3.03;1.85;;;19.10;38.30;;;;;;5054984;28;20055;-82
2021/05/07 13:01:32;;;;;;;3.17;1.90;;;20.10;36.50;;;;;;5058585;28;20045;-86
2021/05/07 13:03:59;;;;;;;1.77;1.65;;;20.40;34.60;;;;;;5044484;28;20132;-76